Time;durP1;ratioP1;P1;durP2;ratioP2;P2;SDS_P1;SDS_P2;PMS_P1;PMS_P2;Temp;Humidity;BMP_temperature;BMP_pressure;BME280_temperature;BME280_humidity;BME280_pressure;Samples;Min_cycle;Max_cycle;Signal;HPM_P1;HPM_P2
2023/01/10 00:01:10;;;;;;;1.45;0.98;;;;;;;;;;5050726;28;20033;-46
2023/01/10 00:03:36;;;;;;;1.13;0.70;;;;;;;;;;5050637;28;20045;-45
2023/01/10 00:06:02;;;;;;;1.05;0.80;;;;;;;;;;5049693;28;20065;-45
2023/01/10 00:08:28;;;;;;;0.93;0.70;;;;;;;;;;5050893;28;20035;-45
2023/01/10 00:10:54;;;;;;;0.80;0.70;;;;;;;;;;5050559;28;20496;-49
2023/01/10 00:13:23;;;;;;;0.73;0.50;;;;;;;;;;5049741;28;20112;-45
2023/01/10 00:15:50;;;;;;;0.50;0.50;;;;;;;;;;5050705;28;20103;-46
2023/01/10 00:18:16;;;;;;;0.70;0.60;;;;;;;;;;5050442;28;20029;-48
2023/01/10 00:20:44;;;;;;;1.00;0.57;;;;;;;;;;5049542;28;20757;-49
2023/01/10 00:23:10;;;;;;;1.92;0.60;;;;;;;;;;5050434;28;20032;-48
2023/01/10 00:25:36;;;;;;;1.35;0.52;;;;;;;;;;5049636;28;20045;-49
2023/01/10 00:30:34;;;;;;;0.73;0.68;;;;;;;;;;5050298;28;20025;-46
2023/01/10 00:33:01;;;;;;;0.93;0.50;;;;;;;;;;5050051;28;20033;-46
2023/01/10 00:35:27;;;;;;;0.98;0.60;;;;;;;;;;5050094;28;20087;-46
2023/01/10 00:38:00;;;;;;;1.38;0.63;;;;;;;;;;5050166;28;20036;-46
2023/01/10 00:40:26;;;;;;;1.35;0.60;;;;;;;;;;5049333;28;20116;-46
2023/01/10 00:45:37;;;;;;;0.50;0.40;;;;;;;;;;5050274;28;20031;-46
2023/01/10 00:48:03;;;;;;;1.27;0.70;;;;;;;;;;5049740;28;20402;-47
2023/01/10 00:50:29;;;;;;;1.58;0.80;;;;;;;;;;5049973;28;20032;-48
2023/01/10 00:52:55;;;;;;;1.10;0.70;;;;;;;;;;5049942;28;20029;-46
2023/01/10 00:55:21;;;;;;;1.38;0.93;;;;;;;;;;5049014;28;20033;-44
2023/01/10 00:57:47;;;;;;;0.60;0.60;;;;;;;;;;5050047;28;20035;-49
2023/01/10 01:00:13;;;;;;;0.88;0.50;;;;;;;;;;5049890;28;20029;-45
2023/01/10 01:02:39;;;;;;;1.50;1.00;;;;;;;;;;5049124;28;20033;-46
2023/01/10 06:13:33;;;;;;;5.68;2.40;;;;;;;;;;5027915;28;20088;-49
2023/01/10 06:15:59;;;;;;;5.65;2.60;;;;;;;;;;5036041;28;20032;-46
2023/01/10 06:18:25;;;;;;;5.63;2.50;;;;;;;;;;5048543;28;20060;-46
2023/01/10 06:20:51;;;;;;;3.70;1.48;;;;;;;;;;5048311;28;20562;-45
2023/01/10 06:23:17;;;;;;;2.60;1.40;;;;;;;;;;5048630;28;20056;-46
2023/01/10 06:25:44;;;;;;;3.65;1.40;;;;;;;;;;5047593;28;20096;-45
2023/01/10 06:28:12;;;;;;;3.83;1.50;;;;;;;;;;5048439;28;20117;-45
2023/01/10 06:30:39;;;;;;;2.30;1.23;;;;;;;;;;5046491;28;20074;-45
2023/01/10 06:33:07;;;;;;;2.47;1.30;;;;;;;;;;5048242;28;20036;-44
2023/01/10 06:35:33;;;;;;;3.72;1.65;;;;;;;;;;5047527;28;20025;-48
2023/01/10 06:37:59;;;;;;;3.15;1.60;;;;;;;;;;5048539;28;20538;-45
2023/01/10 06:40:26;;;;;;;3.72;1.83;;;;;;;;;;5048175;28;20094;-45
2023/01/10 06:42:52;;;;;;;4.22;1.88;;;;;;;;;;5048233;28;20052;-45
2023/01/10 06:45:18;;;;;;;4.32;1.42;;;;;;;;;;5047985;28;20070;-46
2023/01/10 06:47:44;;;;;;;4.30;1.90;;;;;;;;;;5048139;28;20025;-46
2023/01/10 06:50:10;;;;;;;3.72;1.73;;;;;;;;;;5047342;28;20056;-47
2023/01/10 06:52:36;;;;;;;3.60;1.60;;;;;;;;;;5048076;28;20390;-47
2023/01/10 06:55:03;;;;;;;5.32;1.50;;;;;;;;;;5048045;28;20021;-45
2023/01/10 06:57:29;;;;;;;3.47;1.58;;;;;;;;;;5045096;28;20025;-46
2023/01/10 06:59:55;;;;;;;4.50;1.67;;;;;;;;;;5046003;28;20032;-46
2023/01/10 07:02:21;;;;;;;2.03;1.25;;;;;;;;;;5048033;28;20035;-48
2023/01/10 07:04:49;;;;;;;3.42;1.58;;;;;;;;;;5032263;28;20353;-49
2023/01/10 07:07:16;;;;;;;2.25;1.23;;;;;;;;;;5027917;28;20053;-45
2023/01/10 07:09:42;;;;;;;1.95;0.98;;;;;;;;;;5045241;28;20113;-47
2023/01/10 07:12:09;;;;;;;1.58;1.00;;;;;;;;;;5045087;28;20116;-45
2023/01/10 07:14:35;;;;;;;1.20;0.98;;;;;;;;;;5047672;28;20104;-46
2023/01/10 07:17:01;;;;;;;1.75;1.20;;;;;;;;;;5031493;28;20039;-45
2023/01/10 07:19:27;;;;;;;2.65;1.13;;;;;;;;;;5028189;28;20673;-46
2023/01/10 07:21:53;;;;;;;2.33;1.02;;;;;;;;;;5031456;28;20021;-46
2023/01/10 07:24:19;;;;;;;2.60;1.20;;;;;;;;;;5047677;28;20036;-49
2023/01/10 07:26:45;;;;;;;2.42;1.00;;;;;;;;;;5047010;28;20132;-47
2023/01/10 07:29:11;;;;;;;2.45;1.42;;;;;;;;;;5047474;28;20047;-49
2023/01/10 07:31:37;;;;;;;1.95;1.10;;;;;;;;;;5046572;28;20542;-46
2023/01/10 07:34:03;;;;;;;2.45;1.00;;;;;;;;;;5046835;28;20043;-45
2023/01/10 07:36:29;;;;;;;1.25;0.90;;;;;;;;;;5047554;28;20036;-48
2023/01/10 07:38:55;;;;;;;1.30;0.90;;;;;;;;;;5050709;28;20025;-44
2023/01/10 07:41:21;;;;;;;4.88;1.58;;;;;;;;;;5051340;28;20036;-47
2023/01/10 07:43:48;;;;;;;2.63;1.27;;;;;;;;;;5051199;28;20029;-46
2023/01/10 07:46:14;;;;;;;2.30;1.48;;;;;;;;;;5051105;28;20045;-45
2023/01/10 07:48:40;;;;;;;3.25;1.30;;;;;;;;;;5050353;28;20060;-46
2023/01/10 07:51:06;;;;;;;2.38;1.58;;;;;;;;;;5050982;28;20484;-49
2023/01/10 07:53:33;;;;;;;2.78;1.40;;;;;;;;;;5046063;28;20056;-48
2023/01/10 07:56:00;;;;;;;3.03;1.30;;;;;;;;;;5050780;28;20032;-48
2023/01/10 07:58:27;;;;;;;3.85;1.38;;;;;;;;;;5050628;28;20490;-47
2023/01/10 08:00:56;;;;;;;2.95;1.45;;;;;;;;;;5049331;28;20033;-46
2023/01/10 08:03:23;;;;;;;2.90;1.58;;;;;;;;;;5048861;28;20021;-46
2023/01/10 08:05:49;;;;;;;4.30;1.75;;;;;;;;;;5049372;28;20032;-45
2023/01/10 08:08:16;;;;;;;3.03;1.48;;;;;;;;;;5045415;28;20035;-45
2023/01/10 08:10:42;;;;;;;5.22;2.13;;;;;;;;;;5049925;28;20029;-45
2023/01/10 08:13:08;;;;;;;4.00;1.60;;;;;;;;;;5048711;28;20031;-45
2023/01/10 08:15:34;;;;;;;4.10;1.70;;;;;;;;;;5048345;28;20036;-45
2023/01/10 08:18:01;;;;;;;5.05;1.98;;;;;;;;;;5050374;28;20029;-46
2023/01/10 08:20:28;;;;;;;5.60;1.58;;;;;;;;;;5045870;28;20111;-45
2023/01/10 08:22:57;;;;;;;6.38;2.20;;;;;;;;;;5046661;28;20021;-46
2023/01/10 08:25:23;;;;;;;5.22;2.13;;;;;;;;;;5044029;28;20588;-47
2023/01/10 08:27:49;;;;;;;3.53;1.60;;;;;;;;;;5041891;28;20602;-46
2023/01/10 08:30:15;;;;;;;3.70;1.98;;;;;;;;;;5045242;28;20512;-45
2023/01/10 08:32:41;;;;;;;3.63;1.73;;;;;;;;;;5046233;28;20068;-44
2023/01/10 08:35:07;;;;;;;5.00;2.17;;;;;;;;;;5041082;28;20555;-46
2023/01/10 08:37:34;;;;;;;4.72;2.10;;;;;;;;;;5038683;28;20025;-47
2023/01/10 08:40:01;;;;;;;5.55;2.58;;;;;;;;;;5032474;28;20044;-46
2023/01/10 08:42:27;;;;;;;4.15;2.10;;;;;;;;;;5030060;28;20027;-47
2023/01/10 08:44:53;;;;;;;4.13;2.22;;;;;;;;;;5040156;28;20107;-45
2023/01/10 08:47:19;;;;;;;4.13;2.05;;;;;;;;;;5048746;28;20021;-46
2023/01/10 08:49:48;;;;;;;4.45;2.03;;;;;;;;;;5050617;28;20029;-46
2023/01/10 08:52:15;;;;;;;5.35;2.22;;;;;;;;;;5048595;28;20052;-46
2023/01/10 08:54:41;;;;;;;4.82;2.33;;;;;;;;;;5044259;28;20029;-49
2023/01/10 08:57:07;;;;;;;2.95;1.65;;;;;;;;;;5037283;28;20048;-47
2023/01/10 08:59:33;;;;;;;2.38;1.70;;;;;;;;;;5050038;28;20035;-46
2023/01/10 09:01:59;;;;;;;4.18;1.60;;;;;;;;;;5049713;28;20029;-45
2023/01/10 09:04:27;;;;;;;4.15;1.70;;;;;;;;;;5048544;28;20028;-46
2023/01/10 09:06:53;;;;;;;4.18;2.28;;;;;;;;;;5048898;28;20395;-49
2023/01/10 09:09:20;;;;;;;5.30;2.60;;;;;;;;;;5043001;28;20025;-47
2023/01/10 09:11:46;;;;;;;5.65;2.63;;;;;;;;;;5050501;28;20036;-45
2023/01/10 09:14:12;;;;;;;5.30;2.42;;;;;;;;;;5049010;28;20072;-47
2023/01/10 09:16:38;;;;;;;3.97;2.13;;;;;;;;;;5049677;28;20032;-46
2023/01/10 09:19:04;;;;;;;3.22;2.00;;;;;;;;;;5046068;28;20032;-45
2023/01/10 09:21:30;;;;;;;3.47;1.98;;;;;;;;;;5048889;28;20033;-46
2023/01/10 09:23:56;;;;;;;4.03;1.80;;;;;;;;;;5050323;28;20078;-48
2023/01/10 09:26:22;;;;;;;3.85;2.38;;;;;;;;;;5049832;28;20056;-47
2023/01/10 09:28:48;;;;;;;2.45;1.38;;;;;;;;;;5049795;28;20568;-45
2023/01/10 09:31:14;;;;;;;2.97;1.50;;;;;;;;;;5049896;28;20036;-46
2023/01/10 09:33:41;;;;;;;3.03;1.55;;;;;;;;;;5049946;28;20033;-45
2023/01/10 09:36:08;;;;;;;2.53;1.20;;;;;;;;;;5048133;28;20101;-47
2023/01/10 09:38:34;;;;;;;2.75;1.48;;;;;;;;;;5049731;28;20036;-46
2023/01/10 09:41:06;;;;;;;2.90;1.35;;;;;;;;;;5048316;28;20412;-46
2023/01/10 09:43:54;;;;;;;3.65;1.05;;;;;;;;;;5049335;28;20060;-46
2023/01/10 09:46:35;;;;;;;2.17;1.42;;;;;;;;;;5030015;28;20491;-46
2023/01/10 09:49:07;;;;;;;2.65;1.20;;;;;;;;;;5029898;28;20079;-47
2023/01/10 09:51:38;;;;;;;2.25;0.93;;;;;;;;;;5029598;28;20033;-45
2023/01/10 09:54:06;;;;;;;3.35;1.13;;;;;;;;;;5031795;28;20391;-46
2023/01/10 09:56:33;;;;;;;4.72;1.13;;;;;;;;;;5047978;28;20028;-45
2023/01/10 09:59:01;;;;;;;0.93;0.80;;;;;;;;;;5049804;28;20116;-47
2023/01/10 10:01:35;;;;;;;1.70;0.70;;;;;;;;;;5049167;28;20021;-48
2023/01/10 10:04:07;;;;;;;1.05;0.82;;;;;;;;;;5047228;28;20033;-47
2023/01/10 10:06:33;;;;;;;1.55;0.70;;;;;;;;;;5048030;28;20025;-46
2023/01/10 10:09:00;;;;;;;1.48;0.80;;;;;;;;;;5047998;28;20289;-45
2023/01/10 10:11:26;;;;;;;2.65;0.73;;;;;;;;;;5057997;28;20033;-47
2023/01/10 10:13:53;;;;;;;1.98;0.80;;;;;;;;;;5051074;28;20060;-45
2023/01/10 10:16:28;;;;;;;2.65;0.90;;;;;;;;;;5066297;28;20021;-45
2023/01/10 10:18:57;;;;;;;1.63;0.77;;;;;;;;;;5048959;28;20029;-46
2023/01/10 10:21:32;;;;;;;2.00;0.90;;;;;;;;;;5048017;28;20079;-46
2023/01/10 10:23:59;;;;;;;1.95;0.80;;;;;;;;;;5047451;28;20566;-45
2023/01/10 10:27:00;;;;;;;1.33;0.70;;;;;;;;;;5047626;28;20139;-45
2023/01/10 10:29:38;;;;;;;2.13;0.80;;;;;;;;;;5006142;28;20040;-47
2023/01/10 10:32:13;;;;;;;1.85;0.93;;;;;;;;;;5037650;28;20114;-45
2023/01/10 10:34:40;;;;;;;3.75;0.80;;;;;;;;;;5048113;28;20035;-46
2023/01/10 10:37:21;;;;;;;1.45;0.60;;;;;;;;;;5046304;28;20438;-43
2023/01/10 10:39:55;;;;;;;2.53;0.82;;;;;;;;;;5046821;28;20055;-48
2023/01/10 10:42:21;;;;;;;;;;;;;;;;;;5046682;28;20036;-47
2023/01/10 10:44:53;;;;;;;2.10;0.77;;;;;;;;;;5045431;28;19916;-49
2023/01/10 10:47:21;;;;;;;1.60;0.80;;;;;;;;;;5042056;28;20112;-46
2023/01/10 10:50:01;;;;;;;2.33;1.00;;;;;;;;;;5045687;28;20067;-45
2023/01/10 10:52:33;;;;;;;1.08;0.70;;;;;;;;;;5040440;28;20479;-47
2023/01/10 10:55:00;;;;;;;1.30;0.80;;;;;;;;;;5043525;28;20048;-45
2023/01/10 10:57:30;;;;;;;1.63;0.73;;;;;;;;;;5039719;28;20036;-47
2023/01/10 10:59:56;;;;;;;1.02;0.50;;;;;;;;;;5046723;28;20026;-47
2023/01/10 11:02:27;;;;;;;2.42;0.70;;;;;;;;;;5045664;28;20078;-46
2023/01/10 11:04:55;;;;;;;2.47;0.80;;;;;;;;;;5047739;28;20566;-47
2023/01/10 11:07:21;;;;;;;0.95;0.52;;;;;;;;;;5044828;28;20039;-48
2023/01/10 11:12:15;;;;;;;1.23;0.55;;;;;;;;;;5050340;28;20036;-46
2023/01/10 11:14:50;;;;;;;1.63;0.52;;;;;;;;;;5035994;28;20073;-46
2023/01/10 11:17:26;;;;;;;1.98;0.70;;;;;;;;;;5043568;28;20021;-46
2023/01/10 11:19:56;;;;;;;1.13;0.60;;;;;;;;;;5050567;28;20033;-45
2023/01/10 11:22:23;;;;;;;2.03;0.70;;;;;;;;;;5051872;28;20067;-47
2023/01/10 11:24:52;;;;;;;2.70;0.80;;;;;;;;;;5051671;28;20029;-47
2023/01/10 11:27:20;;;;;;;1.48;0.88;;;;;;;;;;5051566;28;20029;-47
2023/01/10 11:29:50;;;;;;;1.58;0.70;;;;;;;;;;5051490;28;20134;-49
2023/01/10 11:32:18;;;;;;;1.33;0.70;;;;;;;;;;5051301;28;20037;-49
2023/01/10 11:34:52;;;;;;;3.00;0.90;;;;;;;;;;5051726;28;20029;-45
2023/01/10 11:37:20;;;;;;;0.80;0.60;;;;;;;;;;5051523;28;20108;-48
2023/01/10 11:39:46;;;;;;;1.52;0.60;;;;;;;;;;5050586;28;20574;-45
2023/01/10 11:42:38;;;;;;;2.05;0.82;;;;;;;;;;5049657;28;20029;-47
2023/01/10 11:45:25;;;;;;;2.58;0.75;;;;;;;;;;5038191;28;20038;-46
2023/01/10 11:48:18;;;;;;;1.17;0.50;;;;;;;;;;5041849;28;20484;-47
2023/01/10 11:50:49;;;;;;;1.02;0.60;;;;;;;;;;5051482;28;20021;-47
2023/01/10 11:53:33;;;;;;;2.13;1.00;;;;;;;;;;5046396;28;20021;-47
2023/01/10 11:55:59;;;;;;;1.73;1.08;;;;;;;;;;5046657;28;20033;-45
2023/01/10 11:58:29;;;;;;;1.48;1.02;;;;;;;;;;5050029;28;20021;-46
2023/01/10 12:00:55;;;;;;;1.60;0.90;;;;;;;;;;5043741;28;20428;-45
2023/01/10 12:03:21;;;;;;;1.88;0.63;;;;;;;;;;5050940;28;20142;-46
2023/01/10 12:05:52;;;;;;;2.70;0.60;;;;;;;;;;5047721;28;20095;-47
2023/01/10 12:08:44;;;;;;;1.23;0.55;;;;;;;;;;5030274;28;20067;-46
2023/01/10 12:11:13;;;;;;;1.73;0.80;;;;;;;;;;5047312;28;20410;-45
2023/01/10 12:13:45;;;;;;;1.35;0.90;;;;;;;;;;5049483;28;20242;-46
2023/01/10 12:16:20;;;;;;;2.20;0.80;;;;;;;;;;5048621;28;20051;-45
2023/01/10 12:18:47;;;;;;;2.78;0.93;;;;;;;;;;5048639;28;20021;-45
2023/01/10 12:21:14;;;;;;;1.23;0.68;;;;;;;;;;5048389;28;20033;-49
2023/01/10 12:23:43;;;;;;;0.90;0.65;;;;;;;;;;5046568;28;20455;-45
2023/01/10 12:26:12;;;;;;;1.33;0.65;;;;;;;;;;5048180;28;20033;-45
2023/01/10 12:28:39;;;;;;;0.65;0.60;;;;;;;;;;5048527;28;20296;-46
2023/01/10 12:31:10;;;;;;;0.90;0.52;;;;;;;;;;5048937;28;20078;-47
2023/01/10 12:33:45;;;;;;;1.33;0.50;;;;;;;;;;5049818;28;20047;-46
2023/01/10 12:36:17;;;;;;;0.93;0.50;;;;;;;;;;5048662;28;20597;-48
2023/01/10 12:39:02;;;;;;;2.50;0.55;;;;;;;;;;5045849;28;20029;-46
2023/01/10 12:44:22;;;;;;;2.42;0.60;;;;;;;;;;5048202;28;20573;-46
2023/01/10 12:47:08;;;;;;;0.80;0.50;;;;;;;;;;5048056;28;20029;-46
2023/01/10 12:49:36;;;;;;;0.88;0.50;;;;;;;;;;5016795;28;20124;-47
2023/01/10 12:52:09;;;;;;;1.92;0.60;;;;;;;;;;5048069;28;20035;-45
2023/01/10 12:54:35;;;;;;;1.92;0.75;;;;;;;;;;5046559;28;20503;-45
2023/01/10 12:57:05;;;;;;;1.02;0.60;;;;;;;;;;5047871;28;20039;-46
2023/01/10 12:59:37;;;;;;;1.13;0.50;;;;;;;;;;5046396;28;20136;-45
2023/01/10 13:02:24;;;;;;;2.33;0.60;;;;;;;;;;5047227;28;20075;-46
2023/01/10 13:04:52;;;;;;;1.63;0.80;;;;;;;;;;5047405;28;20029;-47
2023/01/10 13:07:19;;;;;;;1.88;0.73;;;;;;;;;;5046186;28;20029;-45
2023/01/10 13:09:45;;;;;;;1.65;0.73;;;;;;;;;;5047146;28;20037;-47
2023/01/10 13:12:17;;;;;;;1.73;0.82;;;;;;;;;;5047190;28;20388;-47
2023/01/10 13:15:04;;;;;;;3.55;0.70;;;;;;;;;;5047129;28;20063;-48
2023/01/10 13:17:31;;;;;;;1.38;0.60;;;;;;;;;;5047856;28;20427;-46
2023/01/10 13:20:16;;;;;;;1.60;0.70;;;;;;;;;;5047283;28;20070;-49
2023/01/10 13:22:44;;;;;;;2.22;0.95;;;;;;;;;;5027178;28;20084;-46
2023/01/10 13:25:48;;;;;;;1.15;0.60;;;;;;;;;;5035341;28;20553;-48
2023/01/10 13:28:18;;;;;;;1.37;0.50;;;;;;;;;;4974601;28;20501;-46
2023/01/10 13:30:50;;;;;;;1.08;0.77;;;;;;;;;;4965961;28;20270;-47
2023/01/10 13:33:20;;;;;;;1.42;0.73;;;;;;;;;;5009668;28;20416;-47
2023/01/10 13:35:47;;;;;;;1.27;0.80;;;;;;;;;;5045991;28;20498;-46
2023/01/10 13:38:18;;;;;;;1.55;0.70;;;;;;;;;;5047063;28;20025;-46
2023/01/10 13:44:05;;;;;;;1.42;0.82;;;;;;;;;;5042182;28;20040;-46
2023/01/10 13:46:33;;;;;;;3.00;1.40;;;;;;;;;;5047512;28;20103;-46
2023/01/10 13:49:01;;;;;;;1.83;1.15;;;;;;;;;;5046367;28;20036;-45
2023/01/10 13:51:27;;;;;;;0.88;0.73;;;;;;;;;;5045808;28;20085;-48
2023/01/10 13:53:55;;;;;;;2.55;1.00;;;;;;;;;;5045849;28;20147;-47
2023/01/10 13:56:27;;;;;;;2.47;0.80;;;;;;;;;;5028313;28;20507;-47
2023/01/10 14:04:30;;;;;;;3.35;1.17;;;;;;;;;;5028063;28;20036;-46
2023/01/10 14:07:01;;;;;;;2.23;1.40;;;;;;;;;;5039900;28;20021;-46
2023/01/10 14:09:30;;;;;;;2.40;1.30;;;;;;;;;;5047347;28;20272;-45
2023/01/10 14:12:01;;;;;;;2.20;1.00;;;;;;;;;;5046771;28;20037;-47
2023/01/10 14:14:37;;;;;;;1.58;0.77;;;;;;;;;;5046525;28;20024;-46
2023/01/10 14:17:18;;;;;;;1.10;0.68;;;;;;;;;;5047799;28;20468;-47
2023/01/10 14:19:46;;;;;;;2.03;0.98;;;;;;;;;;5047731;28;20078;-49
2023/01/10 14:22:30;;;;;;;1.58;0.80;;;;;;;;;;5047667;28;20025;-48
2023/01/10 14:24:56;;;;;;;1.02;0.80;;;;;;;;;;5047315;28;20472;-47
2023/01/10 14:27:23;;;;;;;2.58;0.95;;;;;;;;;;5047644;28;20035;-46
2023/01/10 14:29:58;;;;;;;1.25;0.70;;;;;;;;;;5047570;28;20075;-46
2023/01/10 14:32:27;;;;;;;1.08;0.73;;;;;;;;;;5046476;28;20032;-46
2023/01/10 14:34:54;;;;;;;3.63;0.98;;;;;;;;;;5031886;28;20037;-47
2023/01/10 14:37:22;;;;;;;2.05;0.77;;;;;;;;;;5047657;28;20035;-47
2023/01/10 14:39:49;;;;;;;1.85;0.90;;;;;;;;;;5039769;28;20010;-47
2023/01/10 14:42:16;;;;;;;1.83;0.98;;;;;;;;;;5043594;28;20032;-45
2023/01/10 14:44:44;;;;;;;1.27;0.80;;;;;;;;;;5047563;28;20025;-47
2023/01/10 14:47:30;;;;;;;1.15;0.80;;;;;;;;;;5050572;28;20091;-45
2023/01/10 14:50:03;;;;;;;2.13;1.00;;;;;;;;;;5048964;28;20059;-45
2023/01/10 14:52:29;;;;;;;1.02;0.60;;;;;;;;;;5051144;28;20033;-45
2023/01/10 14:55:02;;;;;;;2.00;0.60;;;;;;;;;;5051463;28;20660;-48
2023/01/10 14:57:28;;;;;;;4.03;1.00;;;;;;;;;;5051968;28;20040;-46
2023/01/10 15:00:03;;;;;;;2.45;0.90;;;;;;;;;;5050831;28;20029;-47
2023/01/10 15:02:29;;;;;;;1.77;0.65;;;;;;;;;;5050198;28;20129;-46
2023/01/10 15:04:57;;;;;;;2.42;0.60;;;;;;;;;;5050044;28;20014;-48
2023/01/10 15:07:25;;;;;;;1.50;0.65;;;;;;;;;;5050051;28;20132;-47
2023/01/10 15:09:52;;;;;;;2.65;0.70;;;;;;;;;;5049638;28;20021;-48
2023/01/10 15:12:20;;;;;;;0.88;0.60;;;;;;;;;;5049924;28;20563;-46
2023/01/10 15:14:48;;;;;;;1.73;0.90;;;;;;;;;;5049364;28;20097;-46
2023/01/10 15:17:19;;;;;;;3.15;1.27;;;;;;;;;;5049641;28;20033;-48
2023/01/10 15:19:46;;;;;;;2.30;1.00;;;;;;;;;;5049258;28;20067;-48
2023/01/10 15:22:25;;;;;;;2.22;1.20;;;;;;;;;;5049302;28;20039;-46
2023/01/10 15:24:58;;;;;;;1.75;1.00;;;;;;;;;;5049056;28;20032;-45
2023/01/10 15:27:24;;;;;;;2.47;0.93;;;;;;;;;;5049520;28;20249;-47
2023/01/10 15:29:52;;;;;;;3.13;1.50;;;;;;;;;;5049399;28;20028;-46
2023/01/10 15:32:29;;;;;;;5.75;2.15;;;;;;;;;;5049538;28;20021;-46
2023/01/10 15:34:56;;;;;;;6.03;2.13;;;;;;;;;;5049153;28;20078;-45
2023/01/10 15:37:34;;;;;;;10.82;2.90;;;;;;;;;;5049223;28;20029;-46
2023/01/10 15:40:00;;;;;;;5.55;2.38;;;;;;;;;;5049333;28;20029;-47
2023/01/10 15:42:27;;;;;;;4.82;1.95;;;;;;;;;;5049486;28;20036;-46
2023/01/10 15:44:54;;;;;;;4.20;2.13;;;;;;;;;;5049012;28;20458;-46
2023/01/10 15:47:40;;;;;;;2.95;1.50;;;;;;;;;;5049041;28;20614;-46
2023/01/10 15:50:26;;;;;;;4.65;2.13;;;;;;;;;;5049465;28;20025;-46
2023/01/10 15:52:55;;;;;;;5.35;2.38;;;;;;;;;;5048691;28;20028;-45
2023/01/10 15:55:41;;;;;;;3.40;1.58;;;;;;;;;;5049009;28;20061;-45
2023/01/10 15:58:14;;;;;;;3.80;1.65;;;;;;;;;;5047665;28;20036;-47
2023/01/10 16:00:47;;;;;;;4.05;2.08;;;;;;;;;;5048713;28;20040;-46
2023/01/10 16:03:22;;;;;;;3.60;1.73;;;;;;;;;;5048868;28;20384;-46
2023/01/10 16:05:53;;;;;;;3.85;2.00;;;;;;;;;;5048747;28;20029;-46
2023/01/10 16:08:21;;;;;;;3.20;1.52;;;;;;;;;;5048836;28;20082;-48
2023/01/10 16:10:51;;;;;;;2.58;1.60;;;;;;;;;;5048636;28;20492;-45
2023/01/10 16:13:26;;;;;;;2.92;1.45;;;;;;;;;;5048317;28;20400;-45
2023/01/10 16:15:53;;;;;;;2.63;1.20;;;;;;;;;;5048638;28;20433;-45
2023/01/10 16:18:19;;;;;;;2.88;1.17;;;;;;;;;;5048612;28;20029;-45
2023/01/10 16:20:46;;;;;;;1.50;1.05;;;;;;;;;;5048272;28;20021;-48
2023/01/10 16:23:19;;;;;;;2.00;1.27;;;;;;;;;;5048555;28;20024;-47
2023/01/10 16:25:48;;;;;;;1.73;1.10;;;;;;;;;;5048321;28;20036;-46
2023/01/10 16:28:15;;;;;;;2.08;1.00;;;;;;;;;;5048313;28;20032;-45
2023/01/10 16:30:48;;;;;;;2.55;1.25;;;;;;;;;;5048195;28;20025;-46
2023/01/10 16:33:22;;;;;;;2.38;1.42;;;;;;;;;;5048338;28;20049;-48
2023/01/10 16:35:48;;;;;;;;;;;;;;;;;;5049001;28;20024;-50
2023/01/10 16:38:16;;;;;;;3.95;1.40;;;;;;;;;;5047845;28;19920;-46
2023/01/10 16:40:43;;;;;;;2.55;1.40;;;;;;;;;;5048068;28;20024;-47
2023/01/10 16:43:16;;;;;;;3.83;1.83;;;;;;;;;;5048348;28;20025;-45
2023/01/10 16:45:42;;;;;;;3.35;2.08;;;;;;;;;;5047858;28;20021;-45
2023/01/10 16:48:09;;;;;;;3.72;2.15;;;;;;;;;;5047978;28;20032;-48
2023/01/10 16:50:35;;;;;;;5.93;2.40;;;;;;;;;;5047843;28;20028;-45
2023/01/10 16:53:02;;;;;;;3.25;1.73;;;;;;;;;;5047932;28;20104;-47
2023/01/10 16:55:36;;;;;;;3.60;1.90;;;;;;;;;;5048199;28;20013;-47
2023/01/10 16:58:02;;;;;;;3.33;2.08;;;;;;;;;;5047675;28;20546;-49
2023/01/10 17:00:28;;;;;;;3.10;1.95;;;;;;;;;;5047947;28;20562;-46
2023/01/10 17:02:56;;;;;;;2.97;2.05;;;;;;;;;;5047315;28;20581;-45
2023/01/10 17:05:23;;;;;;;4.25;1.63;;;;;;;;;;5047663;28;20104;-47
2023/01/10 17:07:49;;;;;;;3.58;1.73;;;;;;;;;;5047138;28;20039;-47
2023/01/10 17:10:15;;;;;;;2.50;1.75;;;;;;;;;;5047563;28;20104;-45
2023/01/10 17:12:41;;;;;;;2.30;1.30;;;;;;;;;;5047170;28;20033;-49
2023/01/10 17:15:11;;;;;;;3.08;1.63;;;;;;;;;;5047941;28;20025;-46
2023/01/10 17:17:37;;;;;;;2.22;1.52;;;;;;;;;;5046971;28;20079;-46
2023/01/10 17:20:04;;;;;;;4.70;2.03;;;;;;;;;;5047700;28;20441;-47
2023/01/10 17:22:31;;;;;;;4.40;2.38;;;;;;;;;;5047307;28;20530;-46
2023/01/10 17:24:57;;;;;;;4.60;2.78;;;;;;;;;;5047568;28;20484;-47
2023/01/10 17:27:24;;;;;;;6.10;3.03;;;;;;;;;;5047277;28;20079;-46
2023/01/10 17:29:50;;;;;;;5.65;2.95;;;;;;;;;;5047149;28;20033;-50
2023/01/10 17:32:15;;;;;;;5.03;2.95;;;;;;;;;;5046882;28;20036;-46
2023/01/10 17:34:41;;;;;;;4.65;2.53;;;;;;;;;;5046815;28;20074;-45
2023/01/10 17:37:08;;;;;;;4.60;2.45;;;;;;;;;;5047144;28;20518;-49
2023/01/10 17:39:36;;;;;;;4.95;2.90;;;;;;;;;;5046926;28;20108;-46
2023/01/10 17:42:02;;;;;;;4.85;2.63;;;;;;;;;;5047049;28;20043;-46
2023/01/10 17:44:28;;;;;;;4.38;2.15;;;;;;;;;;5047453;28;20049;-45
2023/01/10 17:46:55;;;;;;;4.75;2.67;;;;;;;;;;5046647;28;20469;-45
2023/01/10 17:49:22;;;;;;;4.32;2.13;;;;;;;;;;5047102;28;20736;-47
2023/01/10 17:51:48;;;;;;;4.13;2.35;;;;;;;;;;5046432;28;20207;-48
2023/01/10 17:54:14;;;;;;;4.82;2.40;;;;;;;;;;5046402;28;20078;-46
2023/01/10 17:56:40;;;;;;;5.70;2.75;;;;;;;;;;5045236;28;20025;-45
2023/01/10 17:59:07;;;;;;;4.40;2.58;;;;;;;;;;5046718;28;20024;-45
2023/01/10 18:01:33;;;;;;;2.50;1.65;;;;;;;;;;5046456;28;20028;-44
2023/01/10 18:03:59;;;;;;;3.05;1.92;;;;;;;;;;5046682;28;20029;-47
2023/01/10 18:06:25;;;;;;;4.72;2.13;;;;;;;;;;5045059;28;20458;-46
2023/01/10 18:08:52;;;;;;;3.63;1.85;;;;;;;;;;5042725;28;20029;-45
2023/01/10 18:11:18;;;;;;;3.28;1.90;;;;;;;;;;5044402;28;20074;-46
2023/01/10 18:13:44;;;;;;;3.95;1.92;;;;;;;;;;5035272;28;20513;-47
2023/01/10 18:16:10;;;;;;;4.47;2.10;;;;;;;;;;5037188;28;20043;-44
2023/01/10 18:18:36;;;;;;;7.20;2.60;;;;;;;;;;5032006;28;20029;-46
2023/01/10 18:21:04;;;;;;;5.50;2.40;;;;;;;;;;5032169;28;20411;-46
2023/01/10 18:23:31;;;;;;;5.18;2.60;;;;;;;;;;5039608;28;20028;-46
2023/01/10 18:26:04;;;;;;;4.65;2.22;;;;;;;;;;5037887;28;20693;-45
2023/01/10 18:28:31;;;;;;;4.00;2.35;;;;;;;;;;5031047;28;20077;-47
2023/01/10 18:31:01;;;;;;;4.60;2.30;;;;;;;;;;5036912;28;20040;-46
2023/01/10 18:33:28;;;;;;;4.72;2.15;;;;;;;;;;5043155;28;20072;-47
2023/01/10 18:35:56;;;;;;;4.28;1.90;;;;;;;;;;5045665;28;20035;-45
2023/01/10 18:38:22;;;;;;;3.13;2.20;;;;;;;;;;5044073;28;20029;-45
2023/01/10 18:40:49;;;;;;;3.60;2.20;;;;;;;;;;5044348;28;20384;-46
2023/01/10 18:43:16;;;;;;;3.00;1.77;;;;;;;;;;5034371;28;20443;-49
2023/01/10 18:45:43;;;;;;;2.95;1.77;;;;;;;;;;5025348;28;20749;-46
2023/01/10 18:48:10;;;;;;;3.67;2.20;;;;;;;;;;5026880;28;20022;-47
2023/01/10 18:50:37;;;;;;;3.28;2.13;;;;;;;;;;5042391;28;20040;-48
2023/01/10 18:53:03;;;;;;;4.72;2.85;;;;;;;;;;5044869;28;20025;-46
2023/01/10 18:55:29;;;;;;;4.00;2.55;;;;;;;;;;5042466;28;20043;-46
2023/01/10 18:57:55;;;;;;;4.70;2.90;;;;;;;;;;5043765;28;20052;-46
2023/01/10 19:00:21;;;;;;;6.07;2.92;;;;;;;;;;5044210;28;20029;-45
2023/01/10 19:02:47;;;;;;;4.63;2.92;;;;;;;;;;5044877;28;20025;-45
2023/01/10 19:05:14;;;;;;;5.97;3.15;;;;;;;;;;5042807;28;20044;-45
2023/01/10 19:07:40;;;;;;;4.80;2.80;;;;;;;;;;5040854;28;20029;-49
2023/01/10 19:10:06;;;;;;;6.50;3.20;;;;;;;;;;5044047;28;20033;-47
2023/01/10 19:12:32;;;;;;;5.47;3.40;;;;;;;;;;5044220;28;20087;-46
2023/01/10 19:14:59;;;;;;;5.47;3.00;;;;;;;;;;5043843;28;20457;-46
2023/01/10 19:17:26;;;;;;;6.43;3.00;;;;;;;;;;5043620;28;20102;-46
2023/01/10 19:19:53;;;;;;;6.88;4.00;;;;;;;;;;5045118;28;20171;-46
2023/01/10 19:22:22;;;;;;;7.43;3.95;;;;;;;;;;5045887;28;20727;-47
2023/01/10 19:24:48;;;;;;;8.38;3.85;;;;;;;;;;5045020;28;20024;-45
2023/01/10 19:27:14;;;;;;;7.25;3.78;;;;;;;;;;5045292;28;20086;-47
2023/01/10 19:29:44;;;;;;;7.35;4.20;;;;;;;;;;5044263;28;20051;-46
2023/01/10 19:32:10;;;;;;;9.10;4.40;;;;;;;;;;5024276;28;20021;-45
2023/01/10 19:34:36;;;;;;;10.02;4.80;;;;;;;;;;5049225;28;20766;-46
2023/01/10 19:37:02;;;;;;;9.75;4.45;;;;;;;;;;5048395;28;20113;-45
2023/01/10 19:39:29;;;;;;;8.85;4.53;;;;;;;;;;5043860;28;20028;-48
2023/01/10 19:41:55;;;;;;;9.45;4.82;;;;;;;;;;5049516;28;20488;-45
2023/01/10 19:44:21;;;;;;;9.63;4.38;;;;;;;;;;5048668;28;20025;-48
2023/01/10 19:46:47;;;;;;;7.75;3.85;;;;;;;;;;5050058;28;20021;-45
2023/01/10 19:49:16;;;;;;;7.93;4.32;;;;;;;;;;5050197;28;20033;-46
2023/01/10 19:51:44;;;;;;;7.60;3.80;;;;;;;;;;5047954;28;20056;-48
2023/01/10 19:54:10;;;;;;;8.68;3.80;;;;;;;;;;5050482;28;20049;-46
2023/01/10 19:56:36;;;;;;;7.10;3.60;;;;;;;;;;5049499;28;20598;-47
2023/01/10 19:59:02;;;;;;;9.20;3.97;;;;;;;;;;5049706;28;20566;-47
2023/01/10 20:01:29;;;;;;;8.07;4.75;;;;;;;;;;5050319;28;20096;-46
2023/01/10 20:03:56;;;;;;;11.05;5.43;;;;;;;;;;5038988;28;20033;-48
2023/01/10 20:06:24;;;;;;;8.20;4.53;;;;;;;;;;5031238;28;20025;-46
2023/01/10 20:08:52;;;;;;;9.25;4.53;;;;;;;;;;5035962;28;20016;-48
2023/01/10 20:11:19;;;;;;;11.07;5.38;;;;;;;;;;5049352;28;20021;-46
2023/01/10 20:13:47;;;;;;;8.85;4.88;;;;;;;;;;5049221;28;20037;-48
2023/01/10 20:16:13;;;;;;;6.68;4.00;;;;;;;;;;5049235;28;20047;-49
2023/01/10 20:18:40;;;;;;;8.15;4.53;;;;;;;;;;5031576;28;20033;-45
2023/01/10 20:21:07;;;;;;;7.85;4.53;;;;;;;;;;5042438;28;20099;-49